US-1027 weather

CLOSED Hanson Field
Bertrand, Nebraska, United States

Public forecast

Using degrees Fahrenheit for public forecast. Weather courtesy of forecast.io.

Closest aviation weather report (METAR) to Hanson Field

Closest report is Jim Kelly Field, 11.9 nm (22.0 km) NNW. Retrieved 2019/10/23 15:35 UTC (0 seconds ago):

KLXN 231535Z AUTO 32015KT 10SM CLR 10/05 A2995 RMK AO2 T01030045

Closest aviation forecast (TAF) to Hanson Field

Closest forecast is Kearney Regional Airport, 29.5 nm (54.7 km) ENE. Retrieved 2019/10/23 12:39 UTC (3 hours ago):

TAF KEAR 231137Z 2312/2412 23011KT P6SM SCT100 BKN200 WS010/32045KT FM231400 28014G18KT P6SM SCT200 FM231700 32018G26KT P6SM FEW100 SCT200 FM240000 36014KT P6SM SCT100